Time;durP1;ratioP1;P1;durP2;ratioP2;P2;SDS_P1;SDS_P2;PMS_P1;PMS_P2;Temp;Humidity;BMP_temperature;BMP_pressure;BME280_temperature;BME280_humidity;BME280_pressure;Samples;Min_cycle;Max_cycle;Signal;HPM_P1;HPM_P2
2022/01/27 00:00:38;;;;;;;28.00;16.93;;;-5.10;99.90;;;;;;5074714;28;20417;-78
2022/01/27 00:03:28;;;;;;;29.93;18.90;;;-5.40;99.90;;;;;;5075029;28;20492;-78
2022/01/27 00:05:58;;;;;;;21.93;15.90;;;-5.40;99.90;;;;;;5075337;28;20477;-76
2022/01/27 00:08:38;;;;;;;25.90;17.50;;;-5.50;99.90;;;;;;5075204;28;20400;-81
2022/01/27 00:11:11;;;;;;;25.27;16.43;;;-5.40;99.90;;;;;;5073753;28;20423;-77
2022/01/27 00:14:11;;;;;;;27.60;18.77;;;-5.40;99.90;;;;;;5075133;28;20401;-83
2022/01/27 00:16:31;;;;;;;27.93;17.10;;;-5.20;99.90;;;;;;5074835;28;20562;-80
2022/01/27 00:18:58;;;;;;;27.37;17.93;;;-5.70;99.90;;;;;;5075323;28;20416;-81
2022/01/27 00:21:26;;;;;;;25.70;16.17;;;-5.20;99.90;;;;;;5075150;28;20858;-75
2022/01/27 00:23:53;;;;;;;27.10;18.00;;;-5.90;99.90;;;;;;5077894;28;20466;-82
2022/01/27 00:26:19;;;;;;;21.47;15.50;;;-5.40;99.90;;;;;;5078740;28;20400;-80
2022/01/27 00:28:47;;;;;;;24.57;16.40;;;-5.70;99.90;;;;;;5078661;28;20403;-82
2022/01/27 00:31:15;;;;;;;24.50;16.53;;;-5.70;99.90;;;;;;5078502;28;20408;-78
2022/01/27 00:33:41;;;;;;;27.73;17.70;;;-5.50;99.90;;;;;;5077342;28;20400;-82
2022/01/27 00:36:07;;;;;;;33.53;18.97;;;-5.70;99.90;;;;;;5078500;28;20400;-81
2022/01/27 00:38:33;;;;;;;25.50;17.10;;;-5.80;99.90;;;;;;5078108;28;20471;-82
2022/01/27 00:40:59;;;;;;;26.97;16.90;;;-5.50;99.90;;;;;;5078432;28;20186;-80
2022/01/27 00:43:25;;;;;;;22.13;14.63;;;-5.40;99.90;;;;;;5078261;28;20184;-81
2022/01/27 00:45:51;;;;;;;26.43;14.23;;;-5.60;99.90;;;;;;5078267;28;20392;-76
2022/01/27 00:48:17;;;;;;;24.90;15.63;;;-5.70;99.90;;;;;;5078175;28;20178;-79
2022/01/27 00:50:55;;;;;;;23.20;15.67;;;-5.70;99.90;;;;;;5078198;28;20826;-82
2022/01/27 00:54:25;;;;;;;23.47;13.97;;;-5.70;99.90;;;;;;5077806;28;20405;-82
2022/01/27 00:56:32;;;;;;;20.13;14.37;;;-5.80;99.90;;;;;;5077395;28;20909;-82
2022/01/27 00:59:18;;;;;;;26.20;17.13;;;-5.70;99.90;;;;;;5078042;28;20400;-80
2022/01/27 01:01:50;;;;;;;25.43;14.87;;;-5.90;99.90;;;;;;5076813;28;20444;-81
2022/01/27 01:04:23;;;;;;;23.60;15.63;;;-5.90;99.90;;;;;;5077824;28;20888;-81
2022/01/27 01:06:50;;;;;;;26.90;16.33;;;-5.60;99.90;;;;;;5077952;28;20431;-78
2022/01/27 01:15:13;;;;;;;22.80;15.27;;;-5.40;99.90;;;;;;5077660;28;20419;-77
2022/01/27 01:30:48;;;;;;;24.43;16.13;;;-5.20;99.90;;;;;;5077394;28;20877;-80
2022/01/27 01:33:20;;;;;;;32.80;18.93;;;-5.50;99.90;;;;;;5077087;28;20420;-81
2022/01/27 01:36:00;;;;;;;22.37;13.97;;;-5.40;99.90;;;;;;5077244;28;20396;-81
2022/01/27 01:38:26;;;;;;;31.63;16.67;;;-5.40;99.90;;;;;;5077045;28;20388;-78
2022/01/27 01:40:53;;;;;;;20.30;13.83;;;-5.60;99.90;;;;;;5076151;28;20431;-81
2022/01/27 01:43:20;;;;;;;23.47;14.97;;;-5.50;99.90;;;;;;5077073;28;20451;-79
2022/01/27 01:45:48;;;;;;;22.77;14.93;;;-5.30;99.90;;;;;;5076009;28;20417;-81
2022/01/27 01:48:17;;;;;;;28.30;15.47;;;-5.10;99.90;;;;;;5077066;28;20405;-78
2022/01/27 01:50:43;;;;;;;25.27;14.40;;;-5.30;99.90;;;;;;5076994;28;20396;-78
2022/01/27 01:53:10;;;;;;;24.50;15.33;;;-5.30;99.90;;;;;;5075658;28;20419;-76
2022/01/27 01:55:35;;;;;;;24.17;15.03;;;-5.40;99.90;;;;;;5076966;28;20829;-75
2022/01/27 01:58:02;;;;;;;22.97;16.73;;;-5.20;99.90;;;;;;5076961;28;20396;-71
2022/01/27 02:00:29;;;;;;;30.03;16.03;;;-5.50;99.90;;;;;;5076849;28;20172;-80
2022/01/27 02:02:55;;;;;;;23.13;15.00;;;-5.50;99.90;;;;;;5076645;28;20459;-79
2022/01/27 02:05:25;;;;;;;25.10;16.60;;;-5.50;99.90;;;;;;5076550;28;20384;-70
2022/01/27 02:08:26;;;;;;;27.63;15.50;;;-5.80;99.90;;;;;;5076810;28;20170;-73
2022/01/27 02:19:18;;;;;;;25.23;16.07;;;-5.50;99.90;;;;;;5076576;28;20402;-71
2022/01/27 02:21:48;;;;;;;31.63;17.50;;;-5.70;99.90;;;;;;5075968;28;20416;-76
2022/01/27 02:24:15;;;;;;;28.17;17.20;;;-5.50;99.90;;;;;;5076284;28;20497;-71
2022/01/27 02:26:41;;;;;;;25.23;15.17;;;-6.00;99.90;;;;;;5076346;28;20770;-71
2022/01/27 02:29:08;;;;;;;23.87;14.90;;;-5.60;99.90;;;;;;5076380;28;20430;-77
2022/01/27 02:31:34;;;;;;;25.47;15.73;;;-5.70;99.90;;;;;;5076001;28;20519;-73
2022/01/27 02:34:01;;;;;;;22.23;13.07;;;-5.60;99.90;;;;;;5076218;28;20905;-73
2022/01/27 02:36:27;;;;;;;31.13;15.50;;;-5.50;99.90;;;;;;5075856;28;20169;-77
2022/01/27 02:38:54;;;;;;;25.13;15.97;;;-5.80;99.90;;;;;;5076185;28;20787;-75
2022/01/27 02:41:22;;;;;;;23.07;14.00;;;-5.40;99.90;;;;;;5075822;28;20430;-78
2022/01/27 02:43:48;;;;;;;29.33;16.20;;;-5.50;99.90;;;;;;5074924;28;20454;-74
2022/01/27 02:46:24;;;;;;;27.03;16.03;;;-5.60;99.90;;;;;;5075318;28;20438;-76
2022/01/27 02:48:50;;;;;;;28.10;16.90;;;-5.40;99.90;;;;;;5075667;28;20396;-69
2022/01/27 02:51:16;;;;;;;24.07;14.70;;;-5.50;99.90;;;;;;5075798;28;20398;-69
2022/01/27 02:53:41;;;;;;;29.33;16.87;;;-5.60;99.90;;;;;;5075947;28;20179;-71
2022/01/27 02:56:07;;;;;;;24.57;16.43;;;-5.70;99.90;;;;;;5075933;28;20164;-71
2022/01/27 02:58:33;;;;;;;30.33;15.27;;;-5.80;99.90;;;;;;5075839;28;20659;-80
2022/01/27 03:00:59;;;;;;;32.30;16.97;;;-5.60;99.90;;;;;;5075494;28;20205;-79
2022/01/27 03:03:25;;;;;;;32.17;17.40;;;-5.50;99.90;;;;;;5075316;28;20480;-75
2022/01/27 03:05:52;;;;;;;26.30;16.37;;;-5.60;99.90;;;;;;5075589;28;20202;-76
2022/01/27 03:08:18;;;;;;;26.63;14.90;;;-5.30;99.90;;;;;;5075832;28;20392;-75
2022/01/27 03:10:48;;;;;;;26.53;16.33;;;-5.40;99.90;;;;;;5075784;28;20191;-75
2022/01/27 03:13:15;;;;;;;31.17;16.90;;;-5.60;99.90;;;;;;5075719;28;20250;-69
2022/01/27 03:15:41;;;;;;;29.77;16.67;;;-5.70;99.90;;;;;;5075637;28;20456;-80
2022/01/27 03:18:06;;;;;;;28.00;17.50;;;-5.70;99.90;;;;;;5075482;28;20400;-72
2022/01/27 03:20:33;;;;;;;25.40;14.10;;;-5.80;99.90;;;;;;5075661;28;20225;-77
2022/01/27 03:23:02;;;;;;;30.23;17.47;;;-5.60;99.90;;;;;;5075418;28;20625;-70
2022/01/27 03:25:28;;;;;;;21.63;14.63;;;-5.40;99.90;;;;;;5075683;28;20398;-70
2022/01/27 03:27:54;;;;;;;30.80;18.67;;;-5.50;99.90;;;;;;5075412;28;20463;-70
2022/01/27 03:30:21;;;;;;;27.13;17.60;;;-5.40;99.90;;;;;;5075641;28;20206;-74
2022/01/27 03:32:46;;;;;;;25.63;15.50;;;-5.40;99.90;;;;;;5075632;28;20232;-78
2022/01/27 03:35:13;;;;;;;30.80;16.43;;;-5.10;99.90;;;;;;5075652;28;20409;-78
2022/01/27 03:37:38;;;;;;;27.70;16.07;;;-5.10;99.90;;;;;;5075671;28;20591;-70
2022/01/27 03:40:05;;;;;;;32.03;17.87;;;-5.20;99.90;;;;;;5079103;28;20420;-75
2022/01/27 03:42:31;;;;;;;28.10;17.97;;;-5.10;99.90;;;;;;5082362;28;20207;-71
2022/01/27 03:44:57;;;;;;;31.83;17.60;;;-5.20;99.90;;;;;;5079400;28;20453;-70
2022/01/27 03:47:23;;;;;;;35.50;20.93;;;-5.20;99.90;;;;;;5077032;28;20398;-70
2022/01/27 03:49:48;;;;;;;31.13;17.63;;;-5.80;99.90;;;;;;5075336;28;20489;-70
2022/01/27 03:52:15;;;;;;;29.17;18.33;;;-5.70;99.90;;;;;;5075301;28;20198;-70
2022/01/27 03:54:41;;;;;;;36.60;21.43;;;-5.30;99.90;;;;;;5075322;28;20482;-74
2022/01/27 03:57:07;;;;;;;23.17;15.47;;;-5.30;99.90;;;;;;5077606;28;20443;-75
2022/01/27 03:59:33;;;;;;;34.50;18.73;;;-5.50;99.90;;;;;;5079196;28;20173;-79
2022/01/27 04:01:59;;;;;;;31.23;18.10;;;-5.80;99.90;;;;;;5078622;28;20282;-69
2022/01/27 04:04:26;;;;;;;29.67;17.83;;;-5.30;99.90;;;;;;5079066;28;20195;-75
2022/01/27 04:06:52;;;;;;;35.83;18.87;;;-5.40;99.90;;;;;;5078864;28;20171;-71
2022/01/27 04:09:19;;;;;;;35.87;18.83;;;-5.50;99.90;;;;;;5079001;28;20412;-70
2022/01/27 04:11:46;;;;;;;37.47;20.70;;;-5.40;99.90;;;;;;5078039;28;20487;-82
2022/01/27 04:14:11;;;;;;;35.90;20.63;;;-5.60;99.90;;;;;;5078035;28;20741;-75
2022/01/27 04:16:38;;;;;;;38.97;19.00;;;-5.40;99.90;;;;;;5078598;28;20403;-74
2022/01/27 04:19:04;;;;;;;33.50;18.63;;;-5.30;99.90;;;;;;5078695;28;20165;-70
2022/01/27 04:21:29;;;;;;;30.67;21.87;;;-5.50;99.90;;;;;;5078677;28;20414;-74
2022/01/27 04:23:55;;;;;;;30.07;18.97;;;-5.50;99.90;;;;;;5078565;28;20454;-72
2022/01/27 04:26:28;;;;;;;35.53;20.10;;;-5.60;99.90;;;;;;5078787;28;20171;-71
2022/01/27 04:28:54;;;;;;;35.13;20.40;;;-5.40;99.90;;;;;;5078615;28;20811;-71
2022/01/27 04:31:22;;;;;;;34.27;20.00;;;-5.40;99.90;;;;;;5078190;28;20455;-70
2022/01/27 04:33:48;;;;;;;33.87;20.20;;;-5.50;99.90;;;;;;5078279;28;20185;-70
2022/01/27 04:36:26;;;;;;;35.53;20.77;;;-5.50;99.90;;;;;;5078580;28;20405;-72
2022/01/27 04:39:42;;;;;;;35.63;18.87;;;-5.90;99.90;;;;;;5078420;28;20163;-75
2022/01/27 04:41:57;;;;;;;37.03;19.63;;;-6.00;99.90;;;;;;5074332;28;20422;-83
2022/01/27 04:44:33;;;;;;;33.93;19.87;;;-6.00;99.90;;;;;;5078231;28;20837;-72
2022/01/27 04:47:09;;;;;;;34.87;21.07;;;-6.10;99.90;;;;;;5078170;28;20426;-70
2022/01/27 04:49:34;;;;;;;37.93;21.47;;;-5.90;99.90;;;;;;5077966;28;20404;-74
2022/01/27 04:52:01;;;;;;;48.00;23.47;;;-5.90;99.90;;;;;;5078224;28;20483;-70
2022/01/27 04:54:36;;;;;;;34.67;19.93;;;-5.80;99.90;;;;;;5078056;28;20181;-70
2022/01/27 04:57:04;;;;;;;36.80;20.00;;;-5.60;99.90;;;;;;5078172;28;20412;-72
2022/01/27 04:59:36;;;;;;;43.97;25.00;;;-5.60;99.90;;;;;;5077590;28;20422;-81
2022/01/27 05:02:04;;;;;;;39.50;22.00;;;-5.90;99.90;;;;;;5077694;28;20439;-76
2022/01/27 05:04:34;;;;;;;49.57;23.57;;;-5.60;99.90;;;;;;5077692;28;20539;-82
2022/01/27 05:07:00;;;;;;;40.10;22.80;;;-5.50;99.90;;;;;;5078078;28;20689;-78
2022/01/27 05:09:26;;;;;;;43.67;22.17;;;-5.40;99.90;;;;;;5077288;28;20407;-79
2022/01/27 05:12:00;;;;;;;45.77;26.33;;;-5.20;99.90;;;;;;5077818;28;20174;-79
2022/01/27 05:14:26;;;;;;;41.07;23.27;;;-5.10;99.90;;;;;;5077376;28;20175;-76
2022/01/27 05:16:53;;;;;;;36.90;21.13;;;-5.30;99.90;;;;;;5078031;28;20404;-78
2022/01/27 05:19:19;;;;;;;37.57;22.50;;;-5.40;99.90;;;;;;5077487;28;20747;-81
2022/01/27 05:21:45;;;;;;;48.50;23.67;;;-5.50;99.90;;;;;;5077619;28;20499;-82
2022/01/27 05:24:12;;;;;;;41.13;23.50;;;-5.30;99.90;;;;;;5077563;28;20468;-82
2022/01/27 05:26:39;;;;;;;37.90;21.37;;;-5.60;99.90;;;;;;5077562;28;20405;-77
2022/01/27 05:29:07;;;;;;;40.60;24.03;;;-5.50;99.90;;;;;;5077114;28;20843;-81
2022/01/27 05:31:33;;;;;;;45.87;23.00;;;-5.50;99.90;;;;;;5077388;28;20416;-82
2022/01/27 05:33:58;;;;;;;38.73;21.13;;;-5.20;99.90;;;;;;5076245;28;20763;-76
2022/01/27 05:36:24;;;;;;;39.27;23.37;;;-5.10;99.90;;;;;;5077368;28;20168;-74
2022/01/27 05:38:50;;;;;;;37.20;21.80;;;-5.10;99.90;;;;;;5077188;28;20195;-78
2022/01/27 05:41:16;;;;;;;38.73;21.10;;;-5.20;99.90;;;;;;5077354;28;20606;-83
2022/01/27 05:43:43;;;;;;;37.67;21.87;;;-5.00;99.90;;;;;;5076804;28;20198;-74
2022/01/27 05:46:09;;;;;;;35.70;22.67;;;-5.00;99.90;;;;;;5077152;28;20399;-72
2022/01/27 05:48:35;;;;;;;44.10;22.23;;;-5.20;99.90;;;;;;5077373;28;20424;-82
2022/01/27 05:51:01;;;;;;;40.67;22.10;;;-5.20;99.90;;;;;;5077101;28;20399;-82
2022/01/27 05:53:30;;;;;;;34.40;21.07;;;-5.00;99.90;;;;;;5077233;28;20171;-78
2022/01/27 05:55:56;;;;;;;36.40;19.70;;;-4.90;99.90;;;;;;5076915;28;20501;-75
2022/01/27 05:58:22;;;;;;;37.40;21.97;;;-4.70;99.90;;;;;;5076715;28;20408;-82
2022/01/27 06:00:48;;;;;;;40.03;22.93;;;-4.70;99.90;;;;;;5076486;28;20400;-70
2022/01/27 06:03:14;;;;;;;45.33;25.40;;;-4.90;99.90;;;;;;5076803;28;20459;-77
2022/01/27 06:05:40;;;;;;;39.30;22.80;;;-5.30;99.90;;;;;;5076775;28;20176;-83
2022/01/27 06:08:06;;;;;;;44.73;23.13;;;-5.30;99.90;;;;;;5076822;28;20190;-82
2022/01/27 06:10:32;;;;;;;40.27;22.40;;;-5.30;99.90;;;;;;5075486;28;20179;-79
2022/01/27 06:12:58;;;;;;;42.57;20.47;;;-4.90;99.90;;;;;;5076361;28;20170;-70
2022/01/27 06:15:25;;;;;;;44.43;22.67;;;-4.60;99.90;;;;;;5076516;28;20245;-72
2022/01/27 06:17:51;;;;;;;37.77;23.20;;;-4.80;99.90;;;;;;5076473;28;20253;-79
2022/01/27 06:20:18;;;;;;;39.30;21.67;;;-4.80;99.90;;;;;;5075498;28;20931;-74
2022/01/27 06:22:44;;;;;;;38.83;22.33;;;-4.80;99.90;;;;;;5076333;28;20191;-75
2022/01/27 06:25:11;;;;;;;51.07;24.07;;;-5.00;99.90;;;;;;5076228;28;20799;-75
2022/01/27 06:27:38;;;;;;;38.47;22.90;;;-5.00;99.90;;;;;;5076139;28;20392;-80
2022/01/27 06:30:06;;;;;;;37.67;21.73;;;-5.00;99.90;;;;;;5076184;28;20400;-73
2022/01/27 06:32:34;;;;;;;47.53;23.27;;;-4.90;99.90;;;;;;5076367;28;20501;-80
2022/01/27 06:35:03;;;;;;;33.23;20.03;;;-4.50;99.90;;;;;;5076093;28;20866;-73
2022/01/27 06:37:31;;;;;;;39.80;21.70;;;-5.00;99.90;;;;;;5076270;28;20435;-71
2022/01/27 06:39:57;;;;;;;34.23;21.00;;;-4.90;99.90;;;;;;5075996;28;20404;-81
2022/01/27 06:42:23;;;;;;;40.10;21.33;;;-4.90;99.90;;;;;;5075955;28;20396;-84
2022/01/27 06:44:49;;;;;;;40.57;22.33;;;-4.90;99.90;;;;;;5076230;28;20199;-79
2022/01/27 06:47:15;;;;;;;37.77;21.33;;;-4.90;99.90;;;;;;5076261;28;20160;-76
2022/01/27 06:49:41;;;;;;;41.57;21.77;;;-4.70;99.90;;;;;;5074886;28;20637;-78
2022/01/27 06:52:07;;;;;;;40.73;22.53;;;-4.60;99.90;;;;;;5076038;28;20159;-77
2022/01/27 06:54:33;;;;;;;38.43;21.93;;;-5.00;99.90;;;;;;5074992;28;20224;-78
2022/01/27 06:57:00;;;;;;;44.10;27.40;;;-5.00;99.90;;;;;;5070207;28;20400;-70
2022/01/27 06:59:26;;;;;;;36.57;23.67;;;-4.80;99.90;;;;;;5054630;28;20219;-68
2022/01/27 07:01:52;;;;;;;37.20;20.63;;;-4.90;99.90;;;;;;5069260;28;20468;-71
2022/01/27 07:04:18;;;;;;;40.97;22.23;;;-4.40;99.90;;;;;;5074679;28;20283;-71
2022/01/27 07:06:43;;;;;;;46.00;23.40;;;-5.10;99.90;;;;;;5075587;28;20168;-71
2022/01/27 07:09:09;;;;;;;40.00;22.83;;;-4.60;99.90;;;;;;5075413;28;20832;-74
2022/01/27 07:11:36;;;;;;;39.43;22.67;;;-4.90;99.90;;;;;;5074300;28;20195;-71
2022/01/27 07:14:01;;;;;;;41.20;22.33;;;-5.10;99.90;;;;;;5075249;28;20205;-69
2022/01/27 07:16:27;;;;;;;32.53;20.07;;;-5.50;99.90;;;;;;5075305;28;20447;-78
2022/01/27 07:18:53;;;;;;;40.47;23.93;;;-5.70;99.90;;;;;;5075599;28;20586;-69
2022/01/27 07:21:21;;;;;;;42.53;20.97;;;-5.50;99.90;;;;;;5075167;28;20204;-70
2022/01/27 07:23:48;;;;;;;34.10;21.23;;;-5.30;99.90;;;;;;5072112;28;20624;-71
2022/01/27 07:26:14;;;;;;;34.70;19.10;;;-5.10;99.90;;;;;;5067379;28;20409;-70
2022/01/27 07:28:41;;;;;;;38.03;20.90;;;-4.80;99.90;;;;;;5072556;28;20503;-69
2022/01/27 07:31:06;;;;;;;44.03;23.83;;;-5.20;99.90;;;;;;5076600;28;20420;-73
2022/01/27 07:33:32;;;;;;;36.53;20.93;;;-5.60;99.90;;;;;;5084411;28;20830;-72
2022/01/27 07:35:58;;;;;;;36.23;19.80;;;-5.40;99.90;;;;;;5078060;28;20175;-68
2022/01/27 07:38:26;;;;;;;40.27;24.93;;;-5.10;99.90;;;;;;5079364;28;20168;-71
2022/01/27 07:40:52;;;;;;;36.83;19.93;;;-5.30;99.90;;;;;;5075034;28;20648;-69
2022/01/27 07:43:17;;;;;;;45.93;19.80;;;-5.00;99.90;;;;;;5076626;28;20452;-68
2022/01/27 07:45:44;;;;;;;35.83;21.93;;;-5.30;99.90;;;;;;5077168;28;20175;-70
2022/01/27 07:48:10;;;;;;;44.30;20.93;;;-5.00;99.90;;;;;;5078900;28;20202;-69
2022/01/27 07:50:36;;;;;;;37.87;19.57;;;-5.20;99.90;;;;;;5077159;28;20407;-69
2022/01/27 07:53:02;;;;;;;35.20;21.43;;;-5.00;99.90;;;;;;5078636;28;20249;-72
2022/01/27 07:55:28;;;;;;;34.93;18.83;;;-4.50;99.90;;;;;;5059687;28;20603;-69
2022/01/27 07:57:55;;;;;;;37.67;20.50;;;-4.80;99.90;;;;;;5077544;28;20499;-72
2022/01/27 08:00:20;;;;;;;37.80;19.80;;;-4.60;99.90;;;;;;5076849;28;20182;-70
2022/01/27 08:02:46;;;;;;;33.60;19.27;;;-4.60;99.90;;;;;;5078012;28;20777;-74
2022/01/27 08:05:13;;;;;;;37.40;20.13;;;-5.40;99.90;;;;;;5077781;28;20542;-69
2022/01/27 08:07:39;;;;;;;36.43;20.73;;;-5.20;99.90;;;;;;5076045;28;20179;-70
2022/01/27 08:10:05;;;;;;;36.30;19.53;;;-5.20;99.90;;;;;;5076861;28;20396;-71
2022/01/27 08:12:31;;;;;;;40.73;19.60;;;-5.60;99.90;;;;;;5076608;28;20553;-69
2022/01/27 08:14:57;;;;;;;39.13;21.77;;;-5.60;99.90;;;;;;5077928;28;20496;-69
2022/01/27 08:17:22;;;;;;;36.43;20.07;;;-5.50;99.90;;;;;;5077349;28;20195;-70
2022/01/27 08:19:48;;;;;;;38.73;21.80;;;-5.70;99.90;;;;;;5077736;28;20220;-69
2022/01/27 08:22:14;;;;;;;34.23;21.30;;;-5.30;99.90;;;;;;5077932;28;20195;-70
2022/01/27 08:24:41;;;;;;;37.90;21.00;;;-5.10;99.90;;;;;;5076869;28;20204;-69
2022/01/27 08:27:09;;;;;;;37.03;20.97;;;-5.30;99.90;;;;;;5074920;28;20195;-69
2022/01/27 08:29:42;;;;;;;35.47;22.23;;;-5.40;99.90;;;;;;5074806;28;20425;-70
2022/01/27 08:32:15;;;;;;;33.90;19.63;;;-5.30;99.90;;;;;;5074779;28;20416;-69
2022/01/27 08:34:42;;;;;;;35.80;20.10;;;-5.30;99.90;;;;;;5077780;28;20494;-70
2022/01/27 08:37:10;;;;;;;32.57;19.53;;;-5.00;99.90;;;;;;5076504;28;20452;-69
2022/01/27 08:39:36;;;;;;;33.37;19.20;;;-5.40;99.90;;;;;;5078153;28;20429;-70
2022/01/27 08:42:03;;;;;;;37.40;20.43;;;-4.80;99.90;;;;;;5068303;28;20482;-70
2022/01/27 08:44:29;;;;;;;38.37;21.60;;;-4.90;99.90;;;;;;5067031;28;20510;-72
2022/01/27 08:46:55;;;;;;;43.27;23.30;;;-5.30;99.90;;;;;;5075244;28;20760;-70
2022/01/27 08:49:23;;;;;;;38.27;18.37;;;-5.20;99.90;;;;;;5077884;28;20164;-72
2022/01/27 08:51:49;;;;;;;35.00;19.60;;;-5.10;99.90;;;;;;5077006;28;20426;-70
2022/01/27 08:54:15;;;;;;;35.80;19.83;;;-5.20;99.90;;;;;;5075404;28;20753;-69
2022/01/27 08:56:42;;;;;;;38.80;23.83;;;-4.70;99.90;;;;;;5076565;28;20478;-69
2022/01/27 08:59:08;;;;;;;32.03;17.87;;;-5.10;99.90;;;;;;5077186;28;20255;-71
2022/01/27 09:01:34;;;;;;;29.47;19.73;;;-5.00;99.90;;;;;;5076912;28;20989;-69
2022/01/27 09:04:00;;;;;;;33.87;19.50;;;-4.70;99.90;;;;;;5077096;28;20660;-69
2022/01/27 09:06:28;;;;;;;30.23;18.13;;;-4.40;99.90;;;;;;5076136;28;20484;-70
2022/01/27 09:08:55;;;;;;;39.03;19.97;;;-4.50;99.90;;;;;;5077193;28;20569;-71
2022/01/27 09:11:21;;;;;;;31.30;19.40;;;-5.00;99.90;;;;;;5077215;28;20434;-70
2022/01/27 09:13:47;;;;;;;35.67;21.00;;;-4.80;99.90;;;;;;5075056;28;20445;-70
2022/01/27 09:16:13;;;;;;;30.90;19.87;;;-5.00;99.90;;;;;;5075181;28;20441;-70
2022/01/27 09:18:39;;;;;;;32.83;19.03;;;-5.30;99.90;;;;;;5076159;28;20212;-70
2022/01/27 09:21:11;;;;;;;40.87;20.60;;;-3.50;99.90;;;;;;5076388;28;20878;-69
2022/01/27 09:23:37;;;;;;;31.17;18.20;;;-5.20;99.90;;;;;;5071957;28;20234;-70
2022/01/27 09:26:07;;;;;;;37.67;22.30;;;-5.40;99.90;;;;;;5069833;28;20683;-70
2022/01/27 09:28:33;;;;;;;32.07;18.83;;;-3.70;99.90;;;;;;5076249;28;20445;-71
2022/01/27 09:30:59;;;;;;;33.03;18.43;;;-4.90;99.90;;;;;;5077082;28;20406;-70
2022/01/27 09:33:25;;;;;;;26.03;17.30;;;-4.50;99.90;;;;;;5076803;28;20279;-69
2022/01/27 09:35:51;;;;;;;35.47;20.03;;;-5.10;99.90;;;;;;5074853;28;20485;-69
2022/01/27 09:38:17;;;;;;;32.50;18.33;;;-5.20;99.90;;;;;;5076985;28;20563;-69
2022/01/27 09:40:47;;;;;;;31.53;19.77;;;-5.40;99.90;;;;;;5076236;28;20175;-71
2022/01/27 09:43:13;;;;;;;33.43;17.57;;;-4.70;99.90;;;;;;5069769;28;20229;-72
2022/01/27 09:45:40;;;;;;;36.77;20.27;;;-5.10;99.90;;;;;;5076257;28;20831;-70
2022/01/27 09:48:14;;;;;;;31.37;18.17;;;-5.10;99.90;;;;;;5076176;28;20395;-70
2022/01/27 09:51:00;;;;;;;37.70;18.93;;;-5.00;99.90;;;;;;5076440;28;20400;-69
2022/01/27 09:53:26;;;;;;;34.27;19.47;;;-5.40;99.90;;;;;;5073959;28;20419;-69
2022/01/27 09:55:52;;;;;;;35.93;19.10;;;-5.10;99.90;;;;;;5056052;28;20409;-73
2022/01/27 09:58:18;;;;;;;36.90;21.63;;;-4.80;99.90;;;;;;5056588;28;20491;-69
2022/01/27 10:00:45;;;;;;;37.03;21.40;;;-5.20;99.90;;;;;;5068528;28;20167;-70
2022/01/27 10:03:14;;;;;;;37.57;22.10;;;-5.30;99.90;;;;;;5073371;28;20206;-72
2022/01/27 10:05:42;;;;;;;29.20;19.17;;;-5.20;99.90;;;;;;5074969;28;20543;-75
2022/01/27 10:08:11;;;;;;;37.73;19.77;;;-2.90;99.90;;;;;;5068289;28;20470;-69
2022/01/27 10:10:41;;;;;;;43.33;21.70;;;-5.10;99.90;;;;;;5066915;28;20418;-72
2022/01/27 10:13:28;;;;;;;48.10;20.90;;;-4.90;99.90;;;;;;5075748;28;20419;-69
2022/01/27 10:15:56;;;;;;;33.07;18.53;;;-4.70;99.90;;;;;;5074253;28;20428;-70
2022/01/27 10:18:25;;;;;;;30.60;19.80;;;-4.90;99.90;;;;;;5075820;28;20391;-69
2022/01/27 10:21:01;;;;;;;40.00;20.23;;;-4.00;99.90;;;;;;5074797;28;20834;-69
2022/01/27 10:23:32;;;;;;;34.63;19.90;;;-4.70;99.90;;;;;;5073920;28;20510;-69
2022/01/27 10:26:15;;;;;;;38.03;20.43;;;-4.80;99.90;;;;;;5059333;28;20411;-71
2022/01/27 10:28:48;;;;;;;33.03;19.10;;;-5.20;99.90;;;;;;5074978;28;20411;-71
2022/01/27 10:31:20;;;;;;;28.97;18.90;;;-4.50;99.90;;;;;;5067487;28;20793;-72
2022/01/27 10:33:57;;;;;;;33.80;18.63;;;-4.70;99.90;;;;;;5062890;28;20576;-70
2022/01/27 10:36:31;;;;;;;34.20;19.90;;;-5.50;99.90;;;;;;5066503;28;20396;-69
2022/01/27 10:38:59;;;;;;;37.80;19.83;;;-5.10;99.90;;;;;;5064237;28;20455;-72
2022/01/27 10:41:30;;;;;;;33.80;19.43;;;-5.40;99.90;;;;;;5066799;28;20442;-72
2022/01/27 10:44:11;;;;;;;39.50;21.50;;;-4.00;99.90;;;;;;5074567;28;20461;-72
2022/01/27 10:46:45;;;;;;;39.00;19.93;;;-5.10;99.90;;;;;;5073981;28;20453;-67
2022/01/27 10:49:23;;;;;;;32.43;19.43;;;-5.10;99.90;;;;;;5073765;28;20464;-69
2022/01/27 10:51:52;;;;;;;30.20;18.90;;;-4.90;99.90;;;;;;5074835;28;20416;-71
2022/01/27 10:54:41;;;;;;;36.33;20.43;;;-4.90;99.90;;;;;;5066323;28;20502;-68
2022/01/27 10:57:10;;;;;;;29.33;19.53;;;-4.60;99.90;;;;;;5072150;28;20419;-69
2022/01/27 10:59:36;;;;;;;34.10;19.73;;;-4.80;99.90;;;;;;5074165;28;20410;-69
2022/01/27 11:02:20;;;;;;;35.40;19.07;;;-4.00;99.90;;;;;;5074520;28;20882;-68
2022/01/27 11:04:46;;;;;;;27.07;18.27;;;-4.80;99.90;;;;;;5073408;28;20486;-68
2022/01/27 11:07:16;;;;;;;39.00;20.33;;;-4.40;99.90;;;;;;5074291;28;20396;-70
2022/01/27 11:09:44;;;;;;;38.27;21.00;;;-4.90;99.90;;;;;;5072815;28;20179;-69
2022/01/27 11:12:17;;;;;;;36.13;20.47;;;-5.40;99.90;;;;;;5073043;28;20447;-74
2022/01/27 11:14:50;;;;;;;37.40;19.40;;;-5.10;99.90;;;;;;5074826;28;20400;-72
2022/01/27 11:17:19;;;;;;;31.23;18.87;;;-4.80;99.90;;;;;;5073804;28;20945;-70
2022/01/27 11:27:28;;;;;;;34.70;21.73;;;-4.20;99.90;;;;;;5054958;28;20178;-73
2022/01/27 11:30:10;;;;;;;71.20;37.87;;;-4.20;99.90;;;;;;5064834;28;20201;-70
2022/01/27 11:32:45;;;;;;;60.83;29.77;;;-5.10;99.90;;;;;;5072565;28;20431;-72
2022/01/27 11:35:26;;;;;;;39.67;23.97;;;-4.70;99.90;;;;;;5073294;28;20188;-70
2022/01/27 11:37:54;;;;;;;34.93;19.90;;;-4.60;99.90;;;;;;5073605;28;20415;-69
2022/01/27 11:40:24;;;;;;;34.73;19.93;;;-4.60;99.90;;;;;;5074351;28;20163;-69
2022/01/27 11:43:17;;;;;;;38.63;21.33;;;-4.70;99.90;;;;;;5073888;28;20408;-71
2022/01/27 11:45:47;;;;;;;38.57;22.07;;;-4.30;99.90;;;;;;5075128;28;20722;-72
2022/01/27 11:48:22;;;;;;;35.73;21.00;;;-4.60;99.90;;;;;;5072813;28;20164;-70
2022/01/27 11:50:57;;;;;;;39.90;19.43;;;-4.70;99.90;;;;;;5073921;28;20515;-69
2022/01/27 11:53:36;;;;;;;35.10;20.70;;;-4.60;99.90;;;;;;5067004;28;20395;-70
2022/01/27 11:56:07;;;;;;;35.37;20.40;;;-4.70;99.90;;;;;;5057550;28;20165;-70
2022/01/27 11:58:45;;;;;;;31.63;20.00;;;-4.80;99.90;;;;;;5073026;28;20384;-72
2022/01/27 12:01:21;;;;;;;37.80;19.97;;;-4.60;99.90;;;;;;5073921;28;20232;-72
2022/01/27 12:04:06;;;;;;;26.57;18.73;;;-4.50;99.90;;;;;;5070986;28;20238;-69
2022/01/27 12:06:36;;;;;;;26.43;17.53;;;-4.20;99.90;;;;;;5073914;28;20497;-69
2022/01/27 12:09:19;;;;;;;34.33;20.03;;;-4.50;99.90;;;;;;5053407;28;20236;-69
2022/01/27 12:12:04;;;;;;;28.13;20.27;;;-4.40;99.90;;;;;;5071440;28;20413;-69
2022/01/27 12:14:33;;;;;;;47.13;22.07;;;-4.50;99.90;;;;;;5073687;28;20407;-70
2022/01/27 12:17:08;;;;;;;26.00;16.00;;;-4.50;99.90;;;;;;5072678;28;20180;-73
2022/01/27 12:19:58;;;;;;;29.53;17.43;;;-4.20;99.90;;;;;;5077376;28;20693;-70
2022/01/27 12:22:52;;;;;;;29.07;20.23;;;-4.60;99.90;;;;;;5076727;28;20437;-70
2022/01/27 12:25:19;;;;;;;23.10;14.60;;;-4.40;99.90;;;;;;5072668;28;20815;-69
2022/01/27 12:27:58;;;;;;;26.00;16.57;;;-4.50;99.90;;;;;;5077996;28;20582;-70
2022/01/27 12:30:23;;;;;;;26.27;16.73;;;-4.50;99.90;;;;;;5076525;28;20555;-70
2022/01/27 12:32:55;;;;;;;26.10;15.60;;;-3.50;99.90;;;;;;5078452;28;20183;-69
2022/01/27 12:35:20;;;;;;;29.03;16.60;;;-4.60;99.90;;;;;;5076278;28;20178;-73
2022/01/27 12:37:48;;;;;;;23.60;18.80;;;-4.70;99.90;;;;;;5073136;28;20484;-73
2022/01/27 12:40:19;;;;;;;30.23;17.00;;;-4.60;99.90;;;;;;5061870;28;20161;-71
2022/01/27 12:43:13;;;;;;;27.80;17.33;;;-4.50;99.90;;;;;;5071056;28;20692;-70
2022/01/27 12:45:42;;;;;;;28.63;17.90;;;-4.60;99.90;;;;;;5075715;28;20186;-69
2022/01/27 12:48:11;;;;;;;27.50;17.13;;;-4.50;99.90;;;;;;5077428;28;20217;-69
2022/01/27 12:50:38;;;;;;;28.90;17.73;;;-4.60;99.90;;;;;;5075287;28;20823;-71
2022/01/27 12:53:10;;;;;;;30.23;16.87;;;-4.70;99.90;;;;;;5077556;28;20167;-69
2022/01/27 12:55:40;;;;;;;29.00;17.10;;;-4.10;99.90;;;;;;5070329;28;20187;-70
2022/01/27 12:58:12;;;;;;;26.77;15.63;;;-4.70;99.90;;;;;;5076640;28;20442;-70
2022/01/27 13:00:49;;;;;;;22.13;14.93;;;-4.60;99.90;;;;;;5077634;28;20173;-70
2022/01/27 13:03:16;;;;;;;24.80;16.43;;;-4.30;99.90;;;;;;5077303;28;20418;-70
2022/01/27 13:05:49;;;;;;;26.20;15.73;;;-4.30;99.90;;;;;;5076495;28;20180;-69
2022/01/27 13:08:29;;;;;;;26.10;15.93;;;-3.70;99.90;;;;;;5077619;28;20232;-69
2022/01/27 13:10:59;;;;;;;32.47;18.73;;;-4.30;99.90;;;;;;5077134;28;20457;-69
2022/01/27 13:13:29;;;;;;;24.87;15.60;;;-4.60;99.90;;;;;;5066937;28;20183;-69